Time;durP1;ratioP1;P1;durP2;ratioP2;P2;SDS_P1;SDS_P2;PMS_P1;PMS_P2;Temp;Humidity;BMP_temperature;BMP_pressure;BME280_temperature;BME280_humidity;BME280_pressure;Samples;Min_cycle;Max_cycle;Signal;HPM_P1;HPM_P2
2022/02/13 00:00:48;;;;;;;11.75;5.20;;;2.90;89.00;;;;;;5071542;28;20043;-69
2022/02/13 00:03:13;;;;;;;8.65;4.88;;;2.90;89.30;;;;;;5071428;28;20409;-69
2022/02/13 00:05:39;;;;;;;7.15;4.65;;;2.80;89.40;;;;;;5071500;28;20043;-69
2022/02/13 00:08:05;;;;;;;9.55;4.78;;;2.80;89.80;;;;;;5070505;28;20037;-69
2022/02/13 00:10:31;;;;;;;8.57;4.82;;;2.80;90.20;;;;;;5071666;28;20490;-69
2022/02/13 00:12:57;;;;;;;9.40;4.43;;;2.80;90.20;;;;;;5069809;28;20060;-69
2022/02/13 00:15:22;;;;;;;13.73;5.70;;;2.80;89.80;;;;;;5070204;28;20489;-69
2022/02/13 00:17:48;;;;;;;10.32;5.80;;;2.90;90.00;;;;;;5071512;28;20401;-69
2022/02/13 00:20:14;;;;;;;10.75;5.72;;;2.80;88.90;;;;;;5053445;28;20131;-69
2022/02/13 00:22:39;;;;;;;10.80;5.18;;;2.80;89.40;;;;;;5069688;28;20052;-69
2022/02/13 00:25:05;;;;;;;13.75;4.93;;;2.80;90.00;;;;;;5071543;28;20055;-68
2022/02/13 00:27:31;;;;;;;9.85;5.30;;;2.80;89.90;;;;;;5071373;28;20513;-69
2022/02/13 00:29:56;;;;;;;9.70;4.75;;;2.80;89.40;;;;;;5070113;28;20112;-69
2022/02/13 00:32:23;;;;;;;9.60;5.20;;;2.80;88.50;;;;;;5069712;28;20421;-69
2022/02/13 00:34:49;;;;;;;11.43;5.10;;;2.90;88.90;;;;;;5070068;28;20040;-69
2022/02/13 00:37:15;;;;;;;13.13;5.05;;;2.90;88.30;;;;;;5071502;28;20052;-68
2022/02/13 00:39:40;;;;;;;9.23;5.15;;;2.80;89.00;;;;;;5071375;28;20045;-69
2022/02/13 00:42:06;;;;;;;14.50;5.35;;;2.80;88.60;;;;;;5069666;28;20068;-69
2022/02/13 00:44:32;;;;;;;7.95;5.07;;;2.80;88.70;;;;;;5070180;28;20097;-68
2022/02/13 00:46:57;;;;;;;7.55;5.00;;;2.70;89.00;;;;;;5071259;28;20125;-68
2022/02/13 00:49:23;;;;;;;9.38;5.13;;;2.80;89.40;;;;;;5070145;28;20044;-68
2022/02/13 00:51:49;;;;;;;10.55;5.15;;;2.70;89.40;;;;;;5069529;28;20056;-68
2022/02/13 00:54:15;;;;;;;11.60;5.20;;;2.70;90.00;;;;;;5071316;28;20044;-69
2022/02/13 00:56:40;;;;;;;10.93;5.20;;;2.70;90.20;;;;;;5071296;28;20041;-68
2022/02/13 00:59:06;;;;;;;11.63;5.13;;;2.70;90.10;;;;;;5071219;28;20072;-68
2022/02/13 01:01:31;;;;;;;10.77;5.07;;;2.60;90.10;;;;;;5069465;28;20127;-68
2022/02/13 01:03:57;;;;;;;12.38;6.53;;;2.60;90.10;;;;;;5071013;28;20040;-68
2022/02/13 01:06:24;;;;;;;9.63;5.30;;;2.60;90.10;;;;;;5071237;28;20072;-68
2022/02/13 01:08:50;;;;;;;8.68;4.72;;;2.60;90.40;;;;;;5054169;28;20620;-69
2022/02/13 01:11:15;;;;;;;13.80;6.22;;;2.60;90.60;;;;;;5074207;28;20076;-69
2022/02/13 01:13:44;;;;;;;13.25;6.15;;;2.50;90.70;;;;;;5073290;28;20083;-68
2022/02/13 01:16:10;;;;;;;12.30;5.68;;;2.50;90.80;;;;;;5073292;28;20475;-68
2022/02/13 01:18:36;;;;;;;13.65;6.47;;;2.60;90.80;;;;;;5073146;28;20037;-69
2022/02/13 01:21:02;;;;;;;11.90;5.43;;;2.60;90.80;;;;;;5074235;28;20047;-68
2022/02/13 01:23:27;;;;;;;13.15;6.40;;;2.60;90.60;;;;;;5073068;28;20090;-69
2022/02/13 01:25:53;;;;;;;15.52;5.85;;;2.60;90.70;;;;;;5073116;28;20124;-68
2022/02/13 01:28:19;;;;;;;11.18;5.88;;;2.50;90.80;;;;;;5073054;28;20410;-68
2022/02/13 01:30:46;;;;;;;13.32;6.13;;;2.60;91.00;;;;;;5073217;28;20044;-69
2022/02/13 01:33:12;;;;;;;11.60;5.40;;;2.60;91.20;;;;;;5073832;28;20097;-69
2022/02/13 01:35:37;;;;;;;13.73;5.55;;;2.60;91.00;;;;;;5074192;28;20040;-69
2022/02/13 01:38:03;;;;;;;9.25;5.88;;;2.60;91.00;;;;;;5072750;28;20033;-69
2022/02/13 01:40:29;;;;;;;11.73;5.90;;;2.60;90.80;;;;;;5073149;28;20040;-68
2022/02/13 01:42:54;;;;;;;10.25;5.72;;;2.60;90.80;;;;;;5072342;28;20049;-69
2022/02/13 01:45:20;;;;;;;11.07;5.95;;;2.60;91.10;;;;;;5072778;28;20127;-69
2022/02/13 01:47:45;;;;;;;12.23;6.88;;;2.60;91.20;;;;;;5073830;28;20033;-69
2022/02/13 01:50:11;;;;;;;12.15;6.13;;;2.60;91.30;;;;;;5074165;28;20476;-68
2022/02/13 01:52:39;;;;;;;11.68;6.03;;;2.60;91.30;;;;;;5072482;28;20048;-68
2022/02/13 01:55:06;;;;;;;8.40;5.25;;;2.60;91.20;;;;;;5073930;28;20037;-67
2022/02/13 01:57:31;;;;;;;11.68;6.45;;;2.60;91.00;;;;;;5073679;28;20477;-68
2022/02/13 01:59:57;;;;;;;11.77;5.97;;;2.60;91.30;;;;;;5073749;28;20037;-69
2022/02/13 02:02:23;;;;;;;14.20;7.38;;;2.70;91.50;;;;;;5071916;28;20054;-69
2022/02/13 02:04:50;;;;;;;14.98;6.32;;;2.60;91.60;;;;;;5073613;28;20029;-69
2022/02/13 02:07:16;;;;;;;11.05;6.13;;;2.60;92.00;;;;;;5072484;28;20111;-69
2022/02/13 02:09:46;;;;;;;9.02;6.22;;;2.60;92.10;;;;;;5072234;28;20133;-69
2022/02/13 02:12:12;;;;;;;11.60;6.07;;;2.50;92.00;;;;;;5071823;28;20040;-68
2022/02/13 02:14:37;;;;;;;11.02;5.72;;;2.50;92.30;;;;;;5072274;28;20433;-68
2022/02/13 02:17:03;;;;;;;12.20;6.28;;;2.60;91.50;;;;;;5072126;28;20094;-69
2022/02/13 02:19:31;;;;;;;14.02;6.70;;;2.60;91.60;;;;;;5072101;28;20044;-69
2022/02/13 02:21:57;;;;;;;12.70;6.25;;;2.60;91.80;;;;;;5072810;28;20040;-69
2022/02/13 02:24:23;;;;;;;11.23;6.03;;;2.50;91.70;;;;;;5072027;28;20048;-69
2022/02/13 02:26:49;;;;;;;10.77;5.80;;;2.40;91.80;;;;;;5071916;28;20059;-69
2022/02/13 02:29:15;;;;;;;10.88;7.32;;;2.50;92.00;;;;;;5071813;28;20075;-69
2022/02/13 02:31:40;;;;;;;11.75;7.10;;;2.40;91.80;;;;;;5071372;28;20050;-69
2022/02/13 02:34:06;;;;;;;11.70;5.88;;;2.40;91.70;;;;;;5071742;28;20040;-69
2022/02/13 02:36:32;;;;;;;14.60;6.35;;;2.60;91.80;;;;;;5071942;28;20051;-68
2022/02/13 02:38:57;;;;;;;11.45;6.10;;;2.40;91.70;;;;;;5073070;28;20041;-69
2022/02/13 02:41:23;;;;;;;8.48;5.72;;;2.50;91.50;;;;;;5071197;28;20049;-69
2022/02/13 02:43:49;;;;;;;10.35;6.25;;;2.50;92.10;;;;;;5071627;28;20040;-69
2022/02/13 02:46:15;;;;;;;18.70;7.03;;;2.60;91.70;;;;;;5072667;28;20045;-69
2022/02/13 02:48:40;;;;;;;10.02;5.82;;;2.40;91.70;;;;;;5071455;28;20115;-68
2022/02/13 02:51:06;;;;;;;14.35;6.85;;;2.40;92.10;;;;;;5071153;28;20131;-69
2022/02/13 02:53:33;;;;;;;10.80;5.93;;;2.40;92.00;;;;;;5071564;28;20037;-68
2022/02/13 02:56:00;;;;;;;9.57;6.00;;;2.30;92.20;;;;;;5071542;28;20059;-69
2022/02/13 02:58:26;;;;;;;10.50;5.88;;;2.40;92.50;;;;;;5071451;28;20044;-68
2022/02/13 03:00:51;;;;;;;8.38;6.22;;;2.30;93.00;;;;;;5071245;28;20044;-68
2022/02/13 03:03:18;;;;;;;14.07;7.10;;;2.30;92.90;;;;;;5071045;28;20565;-68
2022/02/13 03:05:46;;;;;;;10.77;6.03;;;2.30;93.20;;;;;;5071091;28;20047;-69
2022/02/13 03:08:12;;;;;;;12.57;6.55;;;2.20;92.90;;;;;;5072463;28;20406;-69
2022/02/13 03:10:37;;;;;;;13.80;6.30;;;2.20;93.10;;;;;;5072377;28;20036;-68
2022/02/13 03:13:04;;;;;;;12.45;6.00;;;2.30;93.70;;;;;;5079913;22;20041;-71
2022/02/13 03:15:29;;;;;;;12.27;6.28;;;2.30;93.40;;;;;;5034637;28;20128;-71
2022/02/13 03:17:55;;;;;;;12.50;6.68;;;2.20;93.70;;;;;;5034707;28;20047;-71
2022/02/13 03:20:21;;;;;;;13.25;6.10;;;2.20;93.50;;;;;;5051104;28;20120;-71
2022/02/13 03:22:46;;;;;;;12.77;6.82;;;2.30;93.70;;;;;;5051853;28;20072;-71
2022/02/13 03:25:12;;;;;;;13.35;6.75;;;2.20;93.80;;;;;;5034343;28;20044;-71
2022/02/13 03:27:38;;;;;;;14.55;7.50;;;2.20;93.90;;;;;;5052289;28;20464;-71
2022/02/13 03:30:04;;;;;;;15.90;6.70;;;2.10;94.10;;;;;;5052167;28;20482;-71
2022/02/13 03:32:30;;;;;;;13.07;6.90;;;2.10;94.40;;;;;;5051252;28;20494;-71
2022/02/13 03:34:56;;;;;;;12.60;6.93;;;2.10;94.60;;;;;;5052251;28;20047;-71
2022/02/13 03:37:21;;;;;;;17.17;6.68;;;2.10;94.40;;;;;;5052186;28;20029;-71
2022/02/13 03:39:47;;;;;;;11.18;6.88;;;2.10;94.50;;;;;;5052025;28;20071;-71
2022/02/13 03:42:12;;;;;;;12.82;7.63;;;2.10;94.40;;;;;;5033985;28;20516;-71
2022/02/13 03:44:38;;;;;;;14.52;7.30;;;2.10;94.50;;;;;;5034391;28;20055;-71
2022/02/13 03:47:05;;;;;;;11.93;7.15;;;2.10;94.80;;;;;;5051662;28;20123;-71
2022/02/13 03:49:31;;;;;;;13.65;6.75;;;2.20;95.10;;;;;;5052038;28;20037;-71
2022/02/13 03:51:56;;;;;;;16.00;6.90;;;2.20;94.80;;;;;;5051592;28;20076;-71
2022/02/13 03:54:22;;;;;;;14.40;7.00;;;2.20;94.70;;;;;;5051892;28;20508;-71
2022/02/13 03:56:48;;;;;;;12.30;7.20;;;2.20;95.10;;;;;;5051836;28;20521;-72
2022/02/13 03:59:13;;;;;;;16.35;6.70;;;2.10;94.90;;;;;;5051711;28;20123;-71
2022/02/13 04:01:39;;;;;;;12.05;7.18;;;2.10;95.00;;;;;;5051215;28;20029;-71
2022/02/13 04:04:05;;;;;;;11.20;6.85;;;2.20;95.00;;;;;;5051887;28;20029;-72
2022/02/13 04:06:31;;;;;;;13.95;6.70;;;2.10;94.90;;;;;;5051889;28;20605;-72
2022/02/13 04:08:56;;;;;;;14.25;7.53;;;2.20;95.30;;;;;;5034010;28;20375;-71
2022/02/13 04:11:22;;;;;;;10.13;6.57;;;2.10;95.20;;;;;;5051420;28;20037;-71
2022/02/13 04:13:48;;;;;;;13.68;6.32;;;2.10;95.60;;;;;;5051518;28;20041;-71
2022/02/13 04:16:13;;;;;;;12.30;7.45;;;2.10;95.60;;;;;;5051523;28;20602;-71
2022/02/13 04:18:39;;;;;;;14.30;7.15;;;2.00;95.50;;;;;;5051692;28;20044;-71
2022/02/13 04:21:04;;;;;;;17.33;7.93;;;2.10;95.50;;;;;;5051306;28;20560;-71
2022/02/13 04:23:32;;;;;;;12.40;6.53;;;2.00;95.50;;;;;;5051430;28;20040;-71
2022/02/13 04:25:58;;;;;;;14.75;7.40;;;2.00;95.90;;;;;;5033812;28;20044;-71
2022/02/13 04:28:24;;;;;;;12.52;7.43;;;2.00;96.00;;;;;;5051530;28;20604;-71
2022/02/13 04:30:49;;;;;;;15.25;7.75;;;2.10;96.10;;;;;;5051205;28;20040;-71
2022/02/13 04:33:15;;;;;;;15.77;7.50;;;2.10;95.90;;;;;;5051419;28;20371;-71
2022/02/13 04:35:42;;;;;;;9.60;6.18;;;2.10;95.60;;;;;;5051572;28;20051;-71
2022/02/13 04:38:07;;;;;;;13.65;7.65;;;2.10;96.00;;;;;;5051439;28;20041;-71
2022/02/13 04:40:33;;;;;;;11.05;6.43;;;2.10;95.80;;;;;;5051409;28;20457;-71
2022/02/13 04:42:59;;;;;;;11.40;6.72;;;2.10;96.00;;;;;;5050911;28;20041;-71
2022/02/13 04:45:25;;;;;;;10.70;6.97;;;2.10;96.40;;;;;;5037196;28;20078;-71
2022/02/13 04:47:51;;;;;;;16.13;7.45;;;2.10;96.50;;;;;;5037297;28;20041;-71
2022/02/13 04:50:21;;;;;;;16.75;7.47;;;2.00;96.50;;;;;;5037277;28;20056;-71
2022/02/13 04:52:51;;;;;;;13.50;7.18;;;1.90;96.60;;;;;;5054706;28;20052;-71
2022/02/13 04:55:18;;;;;;;11.25;6.85;;;1.90;96.60;;;;;;5055094;28;20049;-71
2022/02/13 04:57:44;;;;;;;11.05;7.10;;;1.90;97.50;;;;;;5054982;28;20044;-71
2022/02/13 05:00:10;;;;;;;13.00;7.03;;;1.90;97.20;;;;;;5036992;28;20070;-71
2022/02/13 05:02:36;;;;;;;16.55;6.85;;;1.90;97.00;;;;;;5036591;28;20052;-71
2022/02/13 05:05:03;;;;;;;15.52;7.68;;;1.90;96.90;;;;;;5055027;28;20087;-71
2022/02/13 05:07:29;;;;;;;16.13;7.80;;;2.00;97.10;;;;;;5054933;28;20044;-71
2022/02/13 05:09:54;;;;;;;15.93;7.03;;;2.00;97.40;;;;;;5037163;28;20033;-71
2022/02/13 05:12:20;;;;;;;12.98;7.60;;;2.00;96.90;;;;;;5054166;28;20059;-71
2022/02/13 05:14:46;;;;;;;12.43;7.50;;;2.00;96.90;;;;;;5036855;28;20387;-71
2022/02/13 05:17:12;;;;;;;18.83;7.15;;;2.00;97.30;;;;;;5054696;28;20048;-71
2022/02/13 05:19:37;;;;;;;10.77;6.32;;;2.00;97.30;;;;;;5036769;28;20041;-71
2022/02/13 05:22:03;;;;;;;13.23;7.47;;;1.90;97.60;;;;;;5054075;28;20033;-71
2022/02/13 05:24:31;;;;;;;11.48;7.15;;;1.90;97.70;;;;;;5054775;28;20063;-71
2022/02/13 05:26:57;;;;;;;9.32;6.60;;;1.90;97.80;;;;;;5054398;28;20067;-71
2022/02/13 05:29:22;;;;;;;10.60;6.68;;;1.90;97.80;;;;;;5054629;28;20060;-71
2022/02/13 05:31:48;;;;;;;14.38;7.47;;;1.90;98.00;;;;;;5054157;28;20128;-71
2022/02/13 05:34:15;;;;;;;13.10;7.45;;;1.90;98.20;;;;;;5054276;28;20060;-71
2022/02/13 05:36:44;;;;;;;12.27;6.88;;;2.00;98.00;;;;;;5036570;28;20048;-71
2022/02/13 05:39:10;;;;;;;10.60;7.10;;;2.00;97.80;;;;;;5054232;28;20029;-71
2022/02/13 05:41:36;;;;;;;13.75;6.45;;;2.00;98.00;;;;;;5053600;28;20045;-71
2022/02/13 05:44:02;;;;;;;12.57;6.97;;;2.00;97.70;;;;;;5054386;28;20062;-71
2022/02/13 05:46:29;;;;;;;17.85;7.10;;;2.00;98.00;;;;;;5054209;28;20044;-71
2022/02/13 05:48:55;;;;;;;13.57;6.32;;;2.00;98.00;;;;;;5054177;28;20044;-71
2022/02/13 05:51:23;;;;;;;16.42;9.38;;;2.00;98.00;;;;;;5053751;28;20499;-72
2022/02/13 05:53:49;;;;;;;11.35;7.28;;;2.00;98.40;;;;;;5053867;28;20052;-71
2022/02/13 05:56:15;;;;;;;10.77;6.63;;;1.90;98.10;;;;;;5053615;28;20398;-72
2022/02/13 05:58:42;;;;;;;12.73;8.27;;;1.90;98.50;;;;;;5054088;28;20040;-71
2022/02/13 06:01:08;;;;;;;13.77;6.78;;;1.80;98.70;;;;;;5053551;28;20255;-71
2022/02/13 06:03:34;;;;;;;16.75;7.60;;;1.70;99.10;;;;;;5053790;28;20567;-71
2022/02/13 06:05:59;;;;;;;13.57;7.72;;;1.80;99.60;;;;;;5053875;28;20112;-71
2022/02/13 06:08:25;;;;;;;12.48;7.65;;;1.70;99.50;;;;;;5053711;28;20048;-72
2022/02/13 06:10:51;;;;;;;13.40;7.20;;;1.70;99.60;;;;;;5053362;28;20522;-72
2022/02/13 06:13:16;;;;;;;12.32;7.35;;;1.70;99.90;;;;;;5035454;28;20402;-71
2022/02/13 06:15:42;;;;;;;13.32;6.80;;;1.70;99.90;;;;;;5035707;28;20043;-71
2022/02/13 06:18:07;;;;;;;11.52;6.45;;;1.70;99.90;;;;;;5053594;28;20441;-71
2022/02/13 06:20:33;;;;;;;12.45;7.25;;;1.80;99.90;;;;;;5053360;28;20559;-72
2022/02/13 06:22:58;;;;;;;11.02;6.80;;;1.80;99.90;;;;;;5053030;28;20059;-71
2022/02/13 06:25:24;;;;;;;10.85;6.55;;;1.80;99.80;;;;;;5053288;28;20406;-71
2022/02/13 06:27:49;;;;;;;11.10;7.03;;;1.70;99.90;;;;;;5053214;28;20490;-71
2022/02/13 06:30:15;;;;;;;13.35;6.75;;;1.70;99.90;;;;;;5053402;28;20041;-71
2022/02/13 06:32:41;;;;;;;10.55;6.45;;;1.70;99.90;;;;;;5052841;28;20044;-71
2022/02/13 06:35:06;;;;;;;11.20;6.45;;;1.80;99.90;;;;;;5053209;28;20040;-71
2022/02/13 06:37:32;;;;;;;13.27;6.22;;;1.70;99.90;;;;;;5053198;28;20525;-71
2022/02/13 06:39:58;;;;;;;11.48;6.15;;;1.70;99.90;;;;;;5053003;28;20032;-71
2022/02/13 06:42:24;;;;;;;14.52;7.50;;;1.70;99.90;;;;;;5052733;28;20090;-71
2022/02/13 06:44:50;;;;;;;11.35;6.40;;;1.70;99.90;;;;;;5052953;28;20066;-71
2022/02/13 06:47:16;;;;;;;13.93;7.18;;;1.70;99.90;;;;;;5035120;28;20051;-72
2022/02/13 06:49:42;;;;;;;15.68;7.22;;;1.70;99.90;;;;;;5052810;28;20033;-71
2022/02/13 06:52:07;;;;;;;11.25;6.90;;;1.70;99.90;;;;;;5034683;28;20052;-72
2022/02/13 06:54:33;;;;;;;11.52;6.65;;;1.70;99.90;;;;;;5052707;28;20071;-71
2022/02/13 06:56:58;;;;;;;10.88;6.65;;;1.70;99.90;;;;;;5052979;28;20032;-71
2022/02/13 06:59:24;;;;;;;11.00;6.82;;;1.70;99.90;;;;;;5052724;28;20094;-71
2022/02/13 07:01:50;;;;;;;14.45;6.68;;;1.70;99.90;;;;;;5052360;28;20041;-72
2022/02/13 07:04:15;;;;;;;11.93;6.35;;;1.80;99.90;;;;;;5052646;28;20122;-72
2022/02/13 07:06:41;;;;;;;12.18;7.18;;;1.70;99.90;;;;;;5051908;28;20028;-71
2022/02/13 07:09:07;;;;;;;8.80;6.20;;;1.70;99.90;;;;;;5052464;28;20041;-71
2022/02/13 07:11:33;;;;;;;14.15;6.97;;;1.80;99.90;;;;;;5052238;28;20037;-71
2022/02/13 07:13:58;;;;;;;10.82;6.53;;;1.80;99.90;;;;;;5052606;28;20413;-71
2022/02/13 07:16:24;;;;;;;11.65;6.85;;;1.80;99.90;;;;;;5052379;28;20047;-71
2022/02/13 07:18:49;;;;;;;8.90;6.13;;;1.90;99.90;;;;;;5052411;28;20041;-71
2022/02/13 07:21:15;;;;;;;12.93;7.82;;;2.00;99.90;;;;;;5051926;28;20494;-71
2022/02/13 07:23:41;;;;;;;14.30;6.90;;;2.00;99.90;;;;;;5034206;28;20075;-71
2022/02/13 07:26:06;;;;;;;10.90;6.40;;;2.10;99.90;;;;;;5034569;28;20040;-72
2022/02/13 07:31:16;;;;;;;13.45;6.80;;;2.20;99.90;;;;;;5051787;28;20537;-71
2022/02/13 07:33:41;;;;;;;9.18;5.95;;;2.30;99.90;;;;;;5052063;28;20045;-71
2022/02/13 07:36:07;;;;;;;11.65;6.38;;;2.40;99.90;;;;;;5052025;28;20051;-72
2022/02/13 07:38:33;;;;;;;10.30;6.30;;;2.40;99.90;;;;;;5051896;28;20509;-72
2022/02/13 07:40:58;;;;;;;10.48;6.25;;;2.50;99.90;;;;;;5051150;28;20040;-73
2022/02/13 07:43:24;;;;;;;11.32;6.68;;;2.50;99.70;;;;;;5051158;28;20099;-72
2022/02/13 07:45:50;;;;;;;14.70;6.70;;;2.60;99.60;;;;;;5051749;28;20116;-71
2022/02/13 07:48:15;;;;;;;15.73;6.97;;;2.60;99.70;;;;;;5051762;28;20033;-71
2022/02/13 07:50:41;;;;;;;10.98;6.80;;;2.50;99.90;;;;;;5051638;28;20048;-71
2022/02/13 07:53:06;;;;;;;9.98;6.05;;;2.60;99.90;;;;;;5051596;28;20052;-71
2022/02/13 07:55:33;;;;;;;9.55;6.40;;;2.60;99.90;;;;;;5051693;28;20037;-71
2022/02/13 07:57:59;;;;;;;11.48;6.38;;;2.60;99.90;;;;;;5051520;28;20482;-71
2022/02/13 08:00:25;;;;;;;14.45;6.22;;;2.60;99.90;;;;;;5051544;28;20552;-71
2022/02/13 08:02:51;;;;;;;23.23;9.23;;;2.60;99.90;;;;;;5051128;28;20037;-71
2022/02/13 08:05:18;;;;;;;10.88;6.68;;;2.60;99.90;;;;;;5051631;28;20068;-71
2022/02/13 08:07:49;;;;;;;11.63;6.55;;;2.60;99.90;;;;;;5051720;28;20091;-71
2022/02/13 08:10:15;;;;;;;12.32;6.65;;;2.60;99.90;;;;;;5051574;28;20044;-71
2022/02/13 08:12:41;;;;;;;12.25;7.65;;;2.70;99.90;;;;;;5051126;28;20052;-71
2022/02/13 08:15:07;;;;;;;13.57;7.05;;;2.70;99.80;;;;;;5051501;28;20406;-71
2022/02/13 08:17:32;;;;;;;13.07;7.10;;;2.80;99.20;;;;;;5034540;28;20041;-71
2022/02/13 08:19:59;;;;;;;11.27;6.15;;;2.80;99.40;;;;;;5055418;28;20068;-71
2022/02/13 08:22:25;;;;;;;11.88;6.40;;;2.80;99.20;;;;;;5055312;28;20052;-71
2022/02/13 08:24:50;;;;;;;13.32;7.30;;;2.80;99.00;;;;;;5055698;28;20036;-71
2022/02/13 08:27:16;;;;;;;12.40;6.22;;;2.90;99.10;;;;;;5055543;28;20113;-71
2022/02/13 08:29:42;;;;;;;10.52;6.80;;;3.00;99.10;;;;;;5037455;28;20051;-71
2022/02/13 08:32:08;;;;;;;10.55;6.20;;;3.00;99.00;;;;;;5055030;28;20182;-71
2022/02/13 08:34:34;;;;;;;10.85;6.22;;;3.10;99.30;;;;;;5055465;28;20123;-71
2022/02/13 08:36:59;;;;;;;9.27;6.50;;;3.20;99.00;;;;;;5055391;28;20159;-71
2022/02/13 08:39:25;;;;;;;11.00;7.35;;;3.20;98.10;;;;;;5055277;28;20068;-71
2022/02/13 08:41:51;;;;;;;10.10;6.22;;;3.30;98.10;;;;;;5055002;28;20056;-71
2022/02/13 08:44:16;;;;;;;10.52;6.50;;;3.40;97.90;;;;;;5055443;28;20032;-71
2022/02/13 08:46:42;;;;;;;10.40;5.82;;;3.50;97.50;;;;;;5055250;28;20548;-70
2022/02/13 08:49:08;;;;;;;10.77;6.15;;;3.50;97.30;;;;;;5037103;28;20040;-71
2022/02/13 08:51:33;;;;;;;13.35;6.20;;;3.60;97.50;;;;;;5036924;28;20119;-71
2022/02/13 08:53:59;;;;;;;11.75;6.30;;;3.70;97.20;;;;;;5055267;28;20047;-71
2022/02/13 08:56:24;;;;;;;16.48;6.95;;;3.70;96.60;;;;;;5055072;28;20086;-71
2022/02/13 08:58:53;;;;;;;9.13;6.07;;;3.80;96.40;;;;;;5055056;28;20041;-71
2022/02/13 09:01:19;;;;;;;8.00;5.68;;;3.80;96.30;;;;;;5054608;28;20124;-70
2022/02/13 09:03:45;;;;;;;11.85;6.53;;;3.90;96.10;;;;;;5054680;28;20044;-70
2022/02/13 09:06:10;;;;;;;10.80;6.15;;;3.90;96.00;;;;;;5054955;28;20029;-71
2022/02/13 09:08:36;;;;;;;8.85;5.78;;;3.80;95.90;;;;;;5037033;28;20490;-71
2022/02/13 09:11:02;;;;;;;11.00;6.10;;;3.80;95.60;;;;;;5054788;28;20077;-71
2022/02/13 09:13:27;;;;;;;12.15;6.88;;;4.00;95.90;;;;;;5075311;23;20041;-69
2022/02/13 09:15:53;;;;;;;8.43;5.90;;;4.00;95.60;;;;;;5022659;28;20052;-68
2022/02/13 09:18:18;;;;;;;11.43;6.35;;;4.00;95.60;;;;;;5045505;28;20487;-69
2022/02/13 09:20:46;;;;;;;10.75;7.40;;;4.00;95.60;;;;;;5008659;28;20106;-69
2022/02/13 09:23:13;;;;;;;10.73;6.32;;;4.00;95.80;;;;;;5026621;28;20029;-69
2022/02/13 09:25:40;;;;;;;9.70;7.13;;;4.10;95.50;;;;;;5040235;28;20033;-69
2022/02/13 09:28:06;;;;;;;7.78;6.45;;;4.10;95.40;;;;;;5025908;28;20119;-69
2022/02/13 09:30:32;;;;;;;7.55;5.50;;;4.10;95.30;;;;;;5043696;28;20108;-70
2022/02/13 09:32:57;;;;;;;10.40;6.45;;;4.20;95.30;;;;;;5043080;28;20041;-70
2022/02/13 09:35:23;;;;;;;11.38;6.18;;;4.20;95.00;;;;;;5026180;28;20044;-70
2022/02/13 09:37:50;;;;;;;9.30;6.32;;;4.30;94.90;;;;;;5043566;28;20068;-70
2022/02/13 09:40:17;;;;;;;10.93;6.70;;;4.30;95.00;;;;;;5040268;28;20495;-70
2022/02/13 09:42:44;;;;;;;12.43;6.03;;;4.30;95.10;;;;;;5040352;28;20047;-74
2022/02/13 09:45:10;;;;;;;8.75;6.05;;;4.40;94.80;;;;;;5004869;28;20041;-70
2022/02/13 09:47:38;;;;;;;9.35;7.18;;;4.50;94.80;;;;;;5033549;28;20120;-70
2022/02/13 09:50:07;;;;;;;9.68;6.53;;;4.50;94.90;;;;;;5033937;28;20494;-70
2022/02/13 09:52:33;;;;;;;11.02;5.97;;;4.60;94.70;;;;;;5033677;28;20124;-73
2022/02/13 09:54:58;;;;;;;9.75;5.60;;;4.60;94.30;;;;;;5015813;28;20124;-73
2022/02/13 10:00:09;;;;;;;11.50;6.72;;;4.60;94.60;;;;;;5016244;28;20128;-70
2022/02/13 10:02:39;;;;;;;9.13;6.40;;;4.60;94.20;;;;;;4999087;28;20120;-70
2022/02/13 10:05:08;;;;;;;10.93;6.32;;;4.70;94.30;;;;;;5033779;28;20049;-70
2022/02/13 10:07:35;;;;;;;7.70;6.00;;;4.70;94.30;;;;;;5033428;28;20037;-70
2022/02/13 10:10:04;;;;;;;8.25;6.47;;;4.70;94.10;;;;;;5038375;28;20044;-70
2022/02/13 10:12:31;;;;;;;12.75;6.15;;;4.70;94.30;;;;;;5034271;28;20037;-70
2022/02/13 10:14:56;;;;;;;9.50;6.82;;;4.70;94.10;;;;;;5033152;28;20037;-70
2022/02/13 10:17:22;;;;;;;10.00;6.20;;;4.70;94.20;;;;;;5032932;28;20044;-70
2022/02/13 10:19:54;;;;;;;12.05;6.40;;;4.70;94.40;;;;;;5035656;28;20034;-69
2022/02/13 10:22:36;;;;;;;10.88;5.68;;;4.80;94.40;;;;;;5015109;28;20049;-69
2022/02/13 10:25:15;;;;;;;9.10;5.90;;;4.80;93.90;;;;;;5033390;28;20037;-70
2022/02/13 10:27:46;;;;;;;9.40;6.65;;;4.80;93.80;;;;;;5015406;28;20168;-70
2022/02/13 10:30:11;;;;;;;11.85;6.43;;;4.80;94.00;;;;;;5033154;28;20042;-70
2022/02/13 10:32:41;;;;;;;11.77;6.35;;;4.80;93.90;;;;;;5032886;28;20156;-70
2022/02/13 10:35:15;;;;;;;8.73;5.82;;;4.90;93.90;;;;;;5033094;28;20037;-70
2022/02/13 10:37:54;;;;;;;10.65;5.90;;;4.80;93.30;;;;;;5015432;28;20053;-70
2022/02/13 10:40:23;;;;;;;7.90;5.70;;;4.90;94.00;;;;;;5032993;28;20215;-71
2022/02/13 10:42:59;;;;;;;8.65;6.22;;;4.90;94.20;;;;;;5021368;28;20037;-70
2022/02/13 10:45:28;;;;;;;9.48;6.38;;;5.00;94.00;;;;;;5024556;28;20041;-71
2022/02/13 10:47:59;;;;;;;10.43;6.25;;;5.00;93.60;;;;;;5020690;28;20438;-73
2022/02/13 10:50:27;;;;;;;8.05;5.80;;;5.10;93.00;;;;;;5015223;28;20453;-72
2022/02/13 10:52:56;;;;;;;8.48;6.03;;;5.20;93.30;;;;;;5014935;28;20525;-70
2022/02/13 10:55:22;;;;;;;8.75;5.78;;;5.20;93.50;;;;;;5032803;28;20043;-70
2022/02/13 10:57:47;;;;;;;10.73;6.07;;;5.30;93.60;;;;;;5032901;28;20414;-72
2022/02/13 11:00:16;;;;;;;9.55;5.55;;;5.30;93.50;;;;;;5014789;28;20060;-73
2022/02/13 11:02:45;;;;;;;10.40;6.05;;;5.40;93.60;;;;;;5014314;28;20037;-73
2022/02/13 11:05:11;;;;;;;9.52;6.75;;;5.40;93.80;;;;;;5014785;28;20037;-72
2022/02/13 11:07:48;;;;;;;10.73;6.43;;;5.50;93.60;;;;;;5015100;28;20045;-69
2022/02/13 11:10:23;;;;;;;9.80;6.47;;;5.50;93.40;;;;;;5014654;28;20121;-72
2022/02/13 11:12:53;;;;;;;11.32;6.53;;;5.60;93.60;;;;;;5032156;28;20048;-69
2022/02/13 11:15:21;;;;;;;8.23;5.72;;;5.60;93.30;;;;;;5032403;28;20048;-70
2022/02/13 11:17:49;;;;;;;9.75;6.35;;;5.70;93.40;;;;;;5032553;28;20498;-69
2022/02/13 11:20:16;;;;;;;10.60;6.32;;;5.70;93.50;;;;;;5032657;28;20033;-70
2022/02/13 11:22:43;;;;;;;10.77;6.00;;;5.80;93.50;;;;;;5014113;28;20135;-71
2022/02/13 11:25:10;;;;;;;9.90;6.15;;;5.90;93.20;;;;;;5014532;28;20160;-71
2022/02/13 11:27:57;;;;;;;9.98;5.57;;;6.00;93.20;;;;;;5032351;28;20038;-69
2022/02/13 11:30:49;;;;;;;9.60;6.20;;;6.00;92.60;;;;;;5014449;28;20049;-69
2022/02/13 11:33:30;;;;;;;9.63;6.20;;;6.10;92.10;;;;;;5032040;28;20042;-70
2022/02/13 11:35:57;;;;;;;11.23;5.68;;;6.20;92.30;;;;;;4998125;28;20041;-70
2022/02/13 11:38:47;;;;;;;9.82;5.50;;;6.20;91.70;;;;;;5014189;28;20056;-71
2022/02/13 11:41:14;;;;;;;11.95;5.55;;;6.30;92.00;;;;;;5031747;28;20120;-70
2022/02/13 11:43:46;;;;;;;9.20;6.03;;;6.40;91.90;;;;;;5014449;28;20045;-70
2022/02/13 11:46:13;;;;;;;9.00;6.22;;;6.40;91.80;;;;;;5014099;28;20043;-71
2022/02/13 11:48:43;;;;;;;7.95;5.65;;;6.50;92.20;;;;;;5032013;28;20116;-69
2022/02/13 11:51:10;;;;;;;8.93;5.97;;;6.60;91.40;;;;;;5013872;28;20037;-71
2022/02/13 11:53:41;;;;;;;9.02;6.32;;;6.60;90.70;;;;;;5006499;28;20045;-70
2022/02/13 11:56:25;;;;;;;10.77;6.68;;;6.70;91.00;;;;;;5026162;28;20130;-69
2022/02/13 11:58:52;;;;;;;10.38;6.80;;;6.60;89.50;;;;;;5031739;28;20487;-72
2022/02/13 12:01:36;;;;;;;7.60;6.40;;;6.60;90.90;;;;;;5031276;28;20049;-72
2022/02/13 12:04:09;;;;;;;9.50;6.25;;;6.70;91.10;;;;;;5031630;28;20412;-70
2022/02/13 12:06:36;;;;;;;8.35;5.38;;;6.80;90.60;;;;;;5031751;28;20034;-70
2022/02/13 12:09:03;;;;;;;9.02;6.30;;;6.80;90.90;;;;;;5030633;28;20029;-71
2022/02/13 12:11:42;;;;;;;8.15;5.60;;;6.80;91.40;;;;;;5030628;28;20124;-72
2022/02/13 12:14:21;;;;;;;7.75;6.07;;;6.80;91.60;;;;;;5013857;28;20486;-71
2022/02/13 12:16:58;;;;;;;9.43;5.82;;;6.80;91.50;;;;;;5014006;28;20049;-73
2022/02/13 12:19:35;;;;;;;11.63;6.20;;;6.80;91.10;;;;;;5031569;28;20465;-71
2022/02/13 12:22:15;;;;;;;10.23;5.88;;;6.80;90.80;;;;;;5015590;28;20132;-71
2022/02/13 12:24:43;;;;;;;10.02;6.05;;;6.80;90.80;;;;;;5041537;28;20103;-71
2022/02/13 12:27:09;;;;;;;10.30;6.72;;;6.80;91.40;;;;;;5031399;28;20112;-73
2022/02/13 12:29:51;;;;;;;9.00;5.85;;;6.80;91.50;;;;;;4997539;28;20037;-73
2022/02/13 12:32:17;;;;;;;8.57;6.43;;;6.90;91.50;;;;;;5013415;28;20045;-70
2022/02/13 12:34:56;;;;;;;9.15;6.22;;;6.90;91.40;;;;;;5031562;28;20045;-70
2022/02/13 12:37:40;;;;;;;7.75;5.55;;;6.90;91.30;;;;;;5013934;28;20081;-70
2022/02/13 12:40:10;;;;;;;8.85;6.60;;;6.90;91.30;;;;;;5031503;28;20068;-70
2022/02/13 12:42:39;;;;;;;8.70;6.30;;;7.00;91.70;;;;;;5031168;28;20052;-70
2022/02/13 12:45:19;;;;;;;9.75;6.03;;;7.00;91.20;;;;;;4997591;28;20555;-70
2022/02/13 12:47:48;;;;;;;8.65;6.05;;;7.00;90.80;;;;;;5031257;28;20495;-71
2022/02/13 12:50:14;;;;;;;8.40;6.05;;;7.10;91.10;;;;;;5031214;28;20585;-71
2022/02/13 12:52:41;;;;;;;11.65;6.65;;;7.10;91.20;;;;;;5030837;28;20045;-71
2022/02/13 12:55:13;;;;;;;7.38;6.05;;;7.20;90.60;;;;;;5013608;28;20103;-71